Time;durP1;ratioP1;P1;durP2;ratioP2;P2;SDS_P1;SDS_P2;PMS_P1;PMS_P2;Temp;Humidity;BMP_temperature;BMP_pressure;BME280_temperature;BME280_humidity;BME280_pressure;Samples;Min_cycle;Max_cycle;Signal;HPM_P1;HPM_P2
2023/06/04 00:01:53;;;;;;;;;0.33;0.33;;;;;22.22;36.09;63446.59;6375189;22;30093;-89
2023/06/04 00:04:18;;;;;;;;;0.00;0.00;;;;;22.22;36.09;63446.59;6404564;22;27987;-88
2023/06/04 00:06:43;;;;;;;;;2.67;1.33;;;;;22.65;36.08;85305.81;6405103;22;27909;-88
2023/06/04 00:09:09;;;;;;;;;0.33;0.33;;;;;22.65;36.38;85649.50;6403967;22;28280;-88
2023/06/04 00:11:36;;;;;;;;;1.00;1.00;;;;;22.52;36.13;63433.25;6403967;22;29389;-87
2023/06/04 00:14:02;;;;;;;;;1.00;1.00;;;;;22.51;36.13;63428.88;6404156;22;27987;-88
2023/06/04 00:16:27;;;;;;;;;0.00;0.00;;;;;22.38;36.30;63489.16;6402248;22;27984;-87
2023/06/04 00:18:52;;;;;;;;;1.00;1.00;;;;;22.38;36.30;63489.16;6404138;22;28339;-88
2023/06/04 00:21:18;;;;;;;;;0.67;0.67;;;;;22.38;36.30;63489.16;6403552;22;33806;-88
2023/06/04 00:23:43;;;;;;;;;1.00;1.00;;;;;118.43;36.30;51841.19;6402888;22;27965;-88
2023/06/04 00:26:09;;;;;;;;;1.00;1.00;;;;;22.20;36.28;63400.41;6403640;22;27953;-88
2023/06/04 00:28:34;;;;;;;;;1.00;0.00;;;;;22.25;36.27;63464.66;6404355;22;28060;-87
2023/06/04 00:30:59;;;;;;;;;0.00;0.00;;;;;22.13;36.34;63512.31;6403473;22;28391;-88
2023/06/04 00:33:25;;;;;;;;;1.00;1.00;;;;;22.25;36.36;63447.84;6376514;22;27970;-88
2023/06/04 00:35:50;;;;;;;;;1.00;1.00;;;;;22.21;36.40;63475.94;6403955;22;27835;-87
2023/06/04 00:38:16;;;;;;;;;0.33;0.33;;;;;-145.03;36.40;69383.50;6403641;22;28164;-88
2023/06/04 00:40:41;;;;;;;;;1.00;1.00;;;;;22.00;36.44;63475.53;6404102;22;28827;-87
2023/06/04 00:43:06;;;;;;;;;1.00;1.00;;;;;22.15;36.47;63460.47;6404673;22;27884;-88
2023/06/04 00:45:32;;;;;;;;;2.00;0.00;;;;;21.75;36.52;63459.47;6404478;22;28200;-87
2023/06/04 00:47:57;;;;;;;;;0.67;0.67;;;;;21.75;36.52;69296.25;6404441;22;28468;-87
2023/06/04 00:50:24;;;;;;;;;0.33;0.33;;;;;21.87;36.52;63571.28;6405050;22;29260;-87
2023/06/04 00:52:51;;;;;;;;;0.00;0.00;;;;;22.05;36.53;63471.03;6404313;22;27981;-88
2023/06/04 00:55:19;;;;;;;;;1.25;0.00;;;;;22.05;36.53;63471.03;6404991;22;28018;-87
2023/06/04 00:57:45;;;;;;;;;0.00;0.00;;;;;22.05;36.53;63471.03;6404211;22;27953;-87
2023/06/04 05:00:40;;;;;;;;;0.00;0.00;;;;;20.12;39.23;69072.38;6290441;22;29985;-88
2023/06/04 05:03:06;;;;;;;;;0.00;0.00;;;;;19.62;39.23;69024.75;6355218;22;28829;-88
2023/06/04 05:05:32;;;;;;;;;0.00;0.00;;;;;19.94;39.25;63736.38;6386615;22;28545;-88
2023/06/04 05:07:57;;;;;;;;;0.00;0.00;;;;;20.13;39.23;63672.66;6385999;22;28416;-88
2023/06/04 05:10:23;;;;;;;;;0.00;0.00;;;;;20.08;39.19;63663.16;6386424;22;28377;-88
2023/06/04 05:12:57;;;;;;;;;0.67;0.00;;;;;19.91;39.13;69036.63;6386471;22;28428;-88
2023/06/04 05:15:22;;;;;;;;;0.00;0.00;;;;;20.16;39.10;63732.16;6384730;22;28451;-88
2023/06/04 05:17:48;;;;;;;;;0.00;0.00;;;;;20.10;39.21;63705.13;6355896;22;28830;-89
2023/06/04 05:20:15;;;;;;;;;0.00;0.00;;;;;20.16;39.17;63626.72;6384887;22;28696;-89
2023/06/04 05:22:40;;;;;;;;;1.00;0.00;;;;;20.15;39.22;63651.66;6356025;22;28563;-89
2023/06/04 05:25:06;;;;;;;;;0.00;0.00;;;;;20.10;39.48;63740.50;6385751;22;28465;-88
2023/06/04 05:27:32;;;;;;;;;0.00;0.00;;;;;20.18;39.15;63684.59;6384998;22;28541;-88
2023/06/04 05:29:58;;;;;;;;;0.00;0.00;;;;;20.18;39.11;63653.31;6356624;22;31405;-88
2023/06/04 05:32:24;;;;;;;;;0.00;0.00;;;;;20.21;39.13;63724.50;6384666;22;28443;-89
2023/06/04 05:34:49;;;;;;;;;0.00;0.00;;;;;20.24;39.07;63674.19;6355605;22;28444;-89
2023/06/04 05:37:16;;;;;;;;;0.00;0.00;;;;;20.29;39.03;63660.28;6384392;22;28666;-89
2023/06/04 05:39:42;;;;;;;;;0.00;0.00;;;;;20.29;39.03;63660.28;6385315;22;29486;-88
2023/06/04 05:42:07;;;;;;;;;0.00;0.00;;;;;20.26;39.11;63653.31;6385398;22;28492;-90
2023/06/04 05:44:32;;;;;;;;;0.33;0.33;;;;;20.26;39.11;63653.31;6385168;22;28417;-89
2023/06/04 05:46:58;;;;;;;;;0.00;0.00;;;;;20.38;39.16;63687.63;6386625;22;28415;-89
2023/06/04 05:49:24;;;;;;;;;1.00;0.00;;;;;20.28;39.14;63673.53;6386406;22;28357;-92
2023/06/04 05:51:50;;;;;;;;;0.00;0.00;;;;;20.32;38.82;63648.53;6386612;22;28321;-90
2023/06/04 05:54:16;;;;;;;;;0.00;0.00;;;;;20.33;38.78;63667.44;6386220;22;28314;-90
2023/06/04 05:56:41;;;;;;;;;1.00;0.33;;;;;20.33;38.78;63669.91;6386957;22;28351;-90
2023/06/04 05:59:06;;;;;;;;;0.00;0.00;;;;;20.37;38.71;63665.63;6386182;22;28424;-89
2023/06/04 06:01:32;;;;;;;;;0.00;0.00;;;;;20.35;38.75;63646.13;6386225;22;28512;-89
2023/06/04 06:03:57;;;;;;;;;0.00;0.00;;;;;20.38;38.69;63693.66;6386123;22;28392;-88
2023/06/04 06:06:23;;;;;;;;;0.00;0.00;;;;;20.38;38.69;63693.66;6386508;22;28433;-88
2023/06/04 06:08:49;;;;;;;;;0.00;0.00;;;;;20.44;38.66;63632.72;6386687;22;29348;-88
2023/06/04 06:11:15;;;;;;;;;2.00;0.00;;;;;20.47;38.65;63672.38;6386463;22;28379;-88
2023/06/04 06:13:40;;;;;;;;;0.00;0.00;;;;;20.51;38.56;63658.94;6387138;22;28322;-88
2023/06/04 06:16:06;;;;;;;;;0.00;0.00;;;;;20.62;38.65;63645.09;6386961;22;28500;-88
2023/06/04 06:18:32;;;;;;;;;0.00;0.00;;;;;20.58;38.54;63625.00;6385941;22;29179;-88
2023/06/04 06:20:58;;;;;;;;;0.00;0.00;;;;;20.59;38.54;63656.66;6386382;22;28384;-91
2023/06/04 06:23:24;;;;;;;;;0.00;0.00;;;;;20.65;38.49;63600.09;6387091;22;28403;-89
2023/06/04 06:25:51;;;;;;;;;0.00;0.00;;;;;20.66;38.43;63626.09;6386831;22;27871;-89
2023/06/04 06:28:17;;;;;;;;;0.00;0.00;;;;;20.69;38.42;63610.66;6386978;22;28429;-90
2023/06/04 06:30:42;;;;;;;;;0.00;0.00;;;;;20.69;38.36;51840.53;6388567;22;28401;-91
2023/06/04 06:33:08;;;;;;;;;0.00;0.00;;;;;20.68;38.44;63609.88;6387533;22;28436;-91
2023/06/04 06:35:33;;;;;;;;;0.00;0.00;;;;;20.75;38.38;63606.13;6388474;22;28783;-94
2023/06/04 06:37:58;;;;;;;;;0.00;0.00;;;;;20.77;38.38;63629.00;6388218;22;28920;-89
2023/06/04 06:40:24;;;;;;;;;0.00;0.00;;;;;20.79;38.36;63624.28;6388138;22;28373;-88
2023/06/04 06:42:53;;;;;;;;;0.00;0.00;;;;;20.80;38.32;63583.69;6387599;22;38188;-89
2023/06/04 06:45:19;;;;;;;;;0.00;0.00;;;;;20.83;38.28;63597.66;6388036;22;28634;-91
2023/06/04 06:47:45;;;;;;;;;0.00;0.00;;;;;20.87;38.27;63594.06;6388262;22;29543;-88
2023/06/04 06:50:10;;;;;;;;;0.00;0.00;;;;;20.88;33.70;63630.66;6387851;22;28365;-88
2023/06/04 06:52:36;;;;;;;;;0.00;0.00;;;;;20.81;38.24;63588.16;6387848;22;28358;-88
2023/06/04 06:55:03;;;;;;;;;1.00;0.00;;;;;21.05;38.03;63557.16;6388362;22;28380;-89
2023/06/04 06:57:28;;;;;;;;;0.33;0.00;;;;;21.05;38.03;63557.16;6388038;22;30064;-95
2023/06/04 06:59:54;;;;;;;;;0.00;0.00;;;;;20.95;38.15;63625.44;6387822;22;28435;-87
2023/06/04 07:02:20;;;;;;;;;0.00;0.00;;;;;20.97;38.14;69195.44;6359566;22;28535;-88
2023/06/04 07:04:45;;;;;;;;;0.00;0.00;;;;;20.78;38.19;63613.97;6362584;22;28729;-92
2023/06/04 07:07:13;;;;;;;;;0.00;0.00;;;;;20.96;38.20;69207.13;6341299;22;31820;-84
2023/06/04 07:09:38;;;;;;;;;0.00;0.00;;;;;20.09;38.24;69076.84;6355849;22;28516;-83
2023/06/04 07:20:00;;;;;;;;;0.00;0.00;;;;;21.15;38.24;69259.34;6358882;22;28358;-88
2023/06/04 07:22:25;;;;;;;;;0.00;0.00;;;;;20.86;38.24;63581.31;6357564;22;28768;-90
2023/06/04 07:24:50;;;;;;;;;0.00;0.00;;;;;21.19;38.23;63610.47;6328940;22;28537;-89
2023/06/04 07:27:16;;;;;;;;;0.00;0.00;;;;;21.26;38.23;63597.53;6357015;22;34566;-89
2023/06/04 07:29:44;;;;;;;;;0.00;0.00;;;;;21.22;38.11;69221.97;6356122;22;28388;-87
2023/06/04 07:32:10;;;;;;;;;0.00;0.00;;;;;21.32;38.25;69227.31;6356132;22;28433;-87
2023/06/04 07:34:36;;;;;;;;;0.00;0.00;;;;;21.36;38.25;69232.09;6355777;22;28663;-89
2023/06/04 07:37:02;;;;;;;;;0.00;0.00;;;;;21.26;38.25;63711.31;6355781;22;28508;-90
2023/06/04 07:39:28;;;;;;;;;1.00;0.00;;;;;21.37;38.26;63594.06;6355898;22;28371;-90
2023/06/04 07:41:53;;;;;;;;;0.00;0.00;;;;;21.39;38.28;63592.13;6355717;22;28480;-90
2023/06/04 07:44:26;;;;;;;;;0.00;0.00;;;;;21.45;38.28;63605.09;6354980;22;29019;-82
2023/06/04 07:47:00;;;;;;;;;0.00;0.00;;;;;20.90;38.32;69146.78;6366106;22;28578;-83
2023/06/04 07:49:28;;;;;;;;;0.00;0.00;;;;;20.68;38.38;63633.97;6387596;22;28817;-83
2023/06/04 07:51:54;;;;;;;;;0.00;0.00;;;;;21.06;38.45;63720.06;6383770;22;28378;-88
2023/06/04 07:54:19;;;;;;;;;0.00;0.00;;;;;21.27;38.34;69244.06;6387558;22;28517;-90
2023/06/04 07:56:44;;;;;;;;;0.67;0.00;;;;;21.29;38.36;63615.47;6387558;22;28374;-90
2023/06/04 07:59:31;;;;;;;;;0.00;0.00;;;;;21.61;38.35;69269.41;6377347;22;28387;-83
2023/06/04 08:01:56;;;;;;;;;0.00;0.00;;;;;21.17;38.38;63604.22;6384010;22;28407;-91
2023/06/04 08:04:21;;;;;;;;;0.00;0.00;;;;;-101.83;38.37;69296.34;6332306;22;32613;-82
2023/06/04 08:06:49;;;;;;;;;0.00;0.00;;;;;20.80;38.34;63660.88;6321176;22;29583;-82
2023/06/04 08:09:15;;;;;;;;;0.00;0.00;;;;;20.80;38.34;63660.88;6321804;22;28661;-82
2023/06/04 08:11:44;;;;;;;;;0.00;0.00;;;;;21.80;38.33;63628.66;6323348;22;28373;-82
2023/06/04 08:14:13;;;;;;;;;1.00;0.00;;;;;21.71;38.32;63630.78;6323196;22;28466;-82
2023/06/04 08:16:40;;;;;;;;;0.00;0.00;;;;;-97.90;38.30;68986.06;6318514;22;28582;-82
2023/06/04 08:19:07;;;;;;;;;0.00;0.00;;;;;21.71;38.32;63630.78;6323007;22;28380;-82
2023/06/04 08:21:45;;;;;;;;;0.00;0.00;;;;;21.71;38.30;69287.31;6322885;22;28444;-83
2023/06/04 08:24:11;;;;;;;;;0.00;0.00;;;;;21.74;38.33;63672.13;6321703;22;28690;-83
2023/06/04 08:27:08;;;;;;;;;0.00;0.00;;;;;21.42;38.30;69215.66;6321740;22;28597;-83
2023/06/04 08:32:52;;;;;;;;;;;;;;;;;;;;;
2023/06/04 08:35:21;;;;;;;;;1.00;0.00;;;;;22.65;38.50;69407.59;6286365;22;49822;-84
2023/06/04 08:40:17;;;;;;;;;0.00;0.00;;;;;22.26;38.46;69409.84;6324869;22;28379;-96
2023/06/04 08:42:44;;;;;;;;;0.00;0.00;;;;;23.59;38.15;69554.41;6335501;22;27781;-96
2023/06/04 08:45:15;;;;;;;;;0.00;0.00;;;;;23.59;38.15;63654.38;6330284;22;28401;-92
2023/06/04 08:47:51;;;;;;;;;0.25;0.25;;;;;24.75;37.61;69640.94;6324768;22;28515;-92
2023/06/04 08:50:22;;;;;;;;;0.00;0.00;;;;;25.44;37.27;69776.47;6325979;22;28398;-96
2023/06/04 08:52:53;;;;;;;;;0.00;0.00;;;;;26.22;36.63;69875.34;6331831;22;28360;-94
2023/06/04 08:55:18;;;;;;;;;0.00;0.00;;;;;96.12;35.50;77573.59;6325694;22;28453;-93
2023/06/04 08:57:49;;;;;;;;;0.00;0.00;;;;;-97.90;35.50;68586.97;6323068;22;28425;-91
2023/06/04 09:00:15;;;;;;;;;0.00;0.00;;;;;96.12;35.50;51457.81;6328560;22;28375;-93
2023/06/04 09:02:41;;;;;;;;;0.00;0.00;;;;;-145.03;100.00;62373.16;6329529;22;28375;-88
2023/06/04 09:05:10;;;;;;;;;0.00;0.00;;;;;-145.03;100.00;62373.16;6327067;22;28530;-93
2023/06/04 09:07:40;;;;;;;;;0.75;0.00;;;;;-145.03;100.00;62373.16;6330569;22;29455;-96
2023/06/04 09:10:08;;;;;;;;;0.00;0.00;;;;;-145.03;100.00;62373.16;6328151;22;28367;-95
2023/06/04 09:12:36;;;;;;;;;0.00;0.00;;;;;-145.03;100.00;62373.16;6329458;22;28437;-91
2023/06/04 09:15:02;;;;;;;;;0.00;0.00;;;;;-145.03;100.00;62373.16;6327241;22;28425;-96
2023/06/04 09:17:28;;;;;;;;;2.00;0.75;;;;;-145.03;100.00;62373.16;6324360;22;28418;-96
2023/06/04 09:19:53;;;;;;;;;0.00;0.00;;;;;-145.03;100.00;62373.16;6329308;22;28745;-96
2023/06/04 09:22:19;;;;;;;;;0.00;0.00;;;;;-145.03;100.00;62373.16;6330516;22;28379;-96
2023/06/04 09:24:52;;;;;;;;;0.00;0.00;;;;;-145.03;100.00;62373.16;6329023;22;28321;-96
2023/06/04 09:27:19;;;;;;;;;0.00;0.00;;;;;-145.03;100.00;62373.16;6331686;22;28539;-95
2023/06/04 09:29:57;;;;;;;;;0.00;0.00;;;;;-145.03;100.00;62373.16;6332594;22;27891;-96
2023/06/04 09:32:30;;;;;;;;;0.00;0.00;;;;;-145.03;100.00;62373.16;6332972;22;28447;-96
2023/06/04 09:35:08;;;;;;;;;0.00;0.00;;;;;35.09;26.51;70744.06;6299477;22;45428;-92
2023/06/04 09:37:34;;;;;;;;;0.00;0.00;;;;;35.41;26.17;70662.50;6307659;22;45829;-94
2023/06/04 09:39:59;;;;;;;;;0.00;0.00;;;;;35.73;25.19;70623.31;6306605;22;45461;-86
2023/06/04 09:42:25;;;;;;;;;0.00;0.00;;;;;-145.03;100.00;62373.16;6311271;22;45489;-95
2023/06/04 09:44:50;;;;;;;;;0.00;0.00;;;;;-145.03;100.00;62373.16;6296926;22;28547;-85
2023/06/04 09:47:16;;;;;;;;;0.00;0.00;;;;;-145.03;100.00;62373.16;6322674;22;28469;-86
2023/06/04 09:49:46;;;;;;;;;1.00;1.00;;;;;-145.03;100.00;62373.16;6321174;22;28628;-89
2023/06/04 09:52:12;;;;;;;;;0.40;0.40;;;;;-145.03;100.00;62373.16;6322362;22;28418;-89
2023/06/04 09:54:39;;;;;;;;;0.80;0.80;;;;;-145.03;100.00;62373.16;6320385;22;28444;-89
2023/06/04 09:57:17;;;;;;;;;0.00;0.00;;;;;-145.03;100.00;62373.16;6320785;22;28618;-86
2023/06/04 09:59:49;;;;;;;;;0.40;0.00;;;;;-145.03;100.00;62373.16;6318690;22;28716;-83
2023/06/04 10:02:19;;;;;;;;;0.00;0.00;;;;;-145.03;100.00;62373.16;6322080;22;28666;-81
2023/06/04 10:04:56;;;;;;;;;0.00;0.00;;;;;-145.03;100.00;62373.16;6321552;22;28556;-81
2023/06/04 10:07:23;;;;;;;;;0.00;0.00;;;;;-145.03;100.00;62373.16;6296048;22;29292;-81
2023/06/04 10:09:51;;;;;;;;;0.00;0.00;;;;;-145.03;100.00;62373.16;6321140;22;28430;-81
2023/06/04 10:12:23;;;;;;;;;1.20;0.00;;;;;-145.03;100.00;62373.16;6294116;22;28378;-81
2023/06/04 10:15:07;;;;;;;;;0.00;0.00;;;;;-145.03;100.00;62373.16;6268909;22;28815;-81
2023/06/04 10:17:33;;;;;;;;;0.00;0.00;;;;;-145.03;100.00;62373.16;6321636;22;29477;-82
2023/06/04 10:20:13;;;;;;;;;;;;;;;;;;;;;
2023/06/04 10:22:42;;;;;;;;;1.50;0.00;;;;;-145.03;100.00;62373.16;6321119;22;54205;-83
2023/06/04 10:25:12;;;;;;;;;0.00;0.00;;;;;-145.03;100.00;62373.16;6322351;22;28775;-84
2023/06/04 10:27:47;;;;;;;;;0.00;0.00;;;;;-145.03;100.00;62373.16;6321377;22;28457;-83
2023/06/04 10:30:18;;;;;;;;;0.50;0.25;;;;;-145.03;100.00;62373.16;6322316;22;28421;-84
2023/06/04 10:32:43;;;;;;;;;1.00;1.00;;;;;-145.03;100.00;62373.16;6319880;22;28442;-89
2023/06/04 10:35:09;;;;;;;;;0.67;0.67;;;;;-145.03;100.00;62373.16;6322429;22;28356;-88
2023/06/04 10:37:34;;;;;;;;;0.00;0.00;;;;;-145.03;100.00;62373.16;6322093;22;28936;-87
2023/06/04 10:40:04;;;;;;;;;0.00;0.00;;;;;-145.03;100.00;62373.16;6318517;22;28484;-87
2023/06/04 10:42:47;;;;;;;;;1.00;1.00;;;;;-145.03;100.00;62373.16;6299145;22;28357;-86
2023/06/04 10:45:12;;;;;;;;;0.25;0.25;;;;;-145.03;100.00;62373.16;6319124;22;28597;-87
2023/06/04 10:47:40;;;;;;;;;2.33;2.33;;;;;-145.03;100.00;62373.16;6320698;22;28454;-87
2023/06/04 10:50:10;;;;;;;;;2.00;0.50;;;;;-145.03;100.00;62373.16;6320057;22;28395;-92
2023/06/04 10:52:36;;;;;;;;;2.00;2.00;;;;;-145.03;100.00;62373.16;6319106;22;28389;-92
2023/06/04 10:55:07;;;;;;;;;1.67;1.67;;;;;-145.03;100.00;62373.16;6321114;22;28366;-84
2023/06/04 10:57:36;;;;;;;;;0.00;0.00;;;;;-145.03;100.00;62373.16;6319361;22;28438;-83
2023/06/04 11:00:05;;;;;;;;;0.25;0.25;;;;;-145.03;100.00;62373.16;6293091;22;28397;-84
2023/06/04 11:03:01;;;;;;;;;0.25;0.00;;;;;-145.03;100.00;62373.16;6319212;22;28449;-84
2023/06/04 11:06:13;;;;;;;;;0.00;0.00;;;;;-145.03;100.00;62373.16;6320569;22;28389;-85
2023/06/04 11:08:48;;;;;;;;;1.00;1.00;;;;;-145.03;100.00;62373.16;6290813;22;29142;-84
2023/06/04 11:11:16;;;;;;;;;0.00;0.00;;;;;-145.03;100.00;62373.16;6320045;22;28760;-84
2023/06/04 11:13:44;;;;;;;;;0.00;0.00;;;;;-145.03;100.00;62373.16;6319952;22;28587;-84
2023/06/04 11:16:20;;;;;;;;;0.25;0.25;;;;;-145.03;100.00;62373.16;6322773;22;28405;-83
2023/06/04 11:19:04;;;;;;;;;0.50;0.25;;;;;-145.03;100.00;62373.16;6294620;22;28432;-83
2023/06/04 11:21:30;;;;;;;;;0.25;0.25;;;;;-145.03;100.00;62373.16;6267335;22;28421;-89
2023/06/04 11:23:58;;;;;;;;;0.33;0.33;;;;;-145.03;100.00;62373.16;6293304;22;28389;-81
2023/06/04 11:26:50;;;;;;;;;0.00;0.00;;;;;-145.03;100.00;62373.16;6294772;22;28429;-82
2023/06/04 11:29:16;;;;;;;;;0.75;0.00;;;;;-145.03;100.00;62373.16;6315554;22;28382;-82
2023/06/04 11:31:46;;;;;;;;;0.00;0.00;;;;;-145.03;100.00;62373.16;6322078;22;28585;-82
2023/06/04 11:34:28;;;;;;;;;0.00;0.00;;;;;-145.03;100.00;62373.16;6321134;22;28466;-82
2023/06/04 11:36:54;;;;;;;;;1.00;1.00;;;;;-145.03;100.00;62373.16;6322577;22;28491;-82
2023/06/04 11:39:21;;;;;;;;;1.67;0.67;;;;;-145.03;100.00;62373.16;6322612;22;28675;-82
2023/06/04 11:41:48;;;;;;;;;1.75;0.00;;;;;-145.03;100.00;62373.16;6321878;22;28485;-83
2023/06/04 11:44:14;;;;;;;;;0.67;0.67;;;;;40.68;16.90;68828.16;6304887;22;45405;-82
2023/06/04 11:46:45;;;;;;;;;1.67;0.33;;;;;40.63;16.63;68874.97;6304047;22;45422;-82
2023/06/04 11:49:18;;;;;;;;;0.00;0.00;;;;;40.25;16.34;68930.94;6304254;22;46057;-81
2023/06/04 11:51:51;;;;;;;;;0.00;0.00;;;;;-145.03;100.00;62373.16;6310867;22;45426;-86
2023/06/04 11:54:21;;;;;;;;;0.00;0.00;;;;;-145.03;100.00;62373.16;6295707;22;28430;-94
2023/06/04 11:56:49;;;;;;;;;0.00;0.00;;;;;38.22;17.04;69249.91;6313061;22;44869;-91
2023/06/04 11:59:16;;;;;;;;;0.67;0.67;;;;;38.21;18.01;69308.91;6305125;22;47138;-89
2023/06/04 12:01:42;;;;;;;;;0.67;0.67;;;;;37.70;18.05;69371.53;6300364;22;45347;-93
2023/06/04 12:04:15;;;;;;;;;0.33;0.33;;;;;37.36;18.15;69473.31;6306885;22;45428;-94
2023/06/04 12:06:54;;;;;;;;;0.33;0.33;;;;;36.97;18.00;69478.06;6305923;22;45336;-90
2023/06/04 12:09:21;;;;;;;;;1.00;1.00;;;;;36.64;18.39;69522.97;6309717;22;46424;-94
2023/06/04 12:11:46;;;;;;;;;0.00;0.00;;;;;36.35;17.70;69583.50;6309472;22;45555;-93
2023/06/04 12:14:18;;;;;;;;;1.00;1.00;;;;;35.90;18.67;69608.50;6310019;22;45374;-90
2023/06/04 12:16:53;;;;;;;;;1.00;0.00;;;;;35.72;18.63;69607.03;6309632;22;45446;-91
2023/06/04 12:19:19;;;;;;;;;0.00;0.00;;;;;35.48;18.31;69647.97;6306670;22;46348;-95
2023/06/04 12:21:44;;;;;;;;;0.00;0.00;;;;;35.47;17.93;69706.72;6305164;22;45401;-91
2023/06/04 12:24:11;;;;;;;;;1.00;1.00;;;;;35.21;17.97;69693.56;6305304;22;51119;-92
2023/06/04 12:26:40;;;;;;;;;0.00;0.00;;;;;35.05;18.21;69754.88;6305450;22;45488;-90
2023/06/04 12:29:11;;;;;;;;;1.00;1.00;;;;;34.70;19.01;69700.19;6305877;22;47103;-89
2023/06/04 12:31:40;;;;;;;;;0.00;0.00;;;;;34.66;18.53;69731.16;6304656;22;45371;-86
2023/06/04 12:34:06;;;;;;;;;0.00;0.00;;;;;34.50;19.38;69822.00;6305700;22;45377;-87
2023/06/04 12:36:33;;;;;;;;;1.00;1.00;;;;;34.23;19.50;69802.06;6305599;22;45472;-89
2023/06/04 12:39:00;;;;;;;;;0.00;0.00;;;;;34.21;19.49;69805.19;6304414;22;45960;-89
2023/06/04 12:41:29;;;;;;;;;0.00;0.00;;;;;34.08;19.31;69789.72;6303690;22;45394;-84
2023/06/04 12:43:55;;;;;;;;;0.00;0.00;;;;;33.88;19.44;69789.06;6305718;22;45360;-85
2023/06/04 12:46:22;;;;;;;;;0.00;0.00;;;;;33.72;19.46;69836.47;6305251;22;45325;-87
2023/06/04 12:48:48;;;;;;;;;1.00;0.00;;;;;33.63;20.08;69842.22;6304184;22;46908;-87
2023/06/04 12:51:13;;;;;;;;;0.00;0.00;;;;;-145.03;100.00;62373.16;6321569;22;44631;-85
2023/06/04 12:53:40;;;;;;;;;0.00;0.00;;;;;-145.03;100.00;62373.16;6327943;22;28525;-87
2023/06/04 12:56:05;;;;;;;;;0.00;0.00;;;;;-145.03;100.00;62373.16;6356377;22;28350;-87
2023/06/04 12:58:31;;;;;;;;;0.00;0.00;;;;;-145.03;100.00;62373.16;6355814;22;28439;-92
2023/06/04 13:00:57;;;;;;;;;0.00;0.00;;;;;-145.03;100.00;51178.34;6366904;22;28371;-84
2023/06/04 13:03:22;;;;;;;;;0.00;0.00;;;;;-145.03;100.00;62373.16;6358855;22;28405;-83
2023/06/04 13:05:48;;;;;;;;;0.00;0.00;;;;;-145.03;100.00;62373.16;6387701;22;28562;-83
2023/06/04 13:08:14;;;;;;;;;0.00;0.00;;;;;-145.03;100.00;62373.16;6387007;22;29017;-83
2023/06/04 13:10:39;;;;;;;;;0.00;0.00;;;;;-145.03;100.00;76334.91;6358395;22;28391;-83
2023/06/04 13:13:04;;;;;;;;;1.00;1.00;;;;;-145.03;20.42;51178.34;6387838;22;28391;-82
2023/06/04 13:15:30;;;;;;;;;0.00;0.00;;;;;-145.03;100.00;62373.16;6387731;22;28553;-84
2023/06/04 13:17:55;;;;;;;;;0.00;0.00;;;;;;;;6386707;22;29107;-82
2023/06/04 13:20:20;;;;;;;;;1.00;1.00;;;;;-145.03;22.93;62373.44;6387399;22;28479;-83
2023/06/04 13:22:47;;;;;;;;;0.00;0.00;;;;;-97.90;69.21;83225.97;6387974;22;28473;-83
2023/06/04 13:25:12;;;;;;;;;0.00;0.00;;;;;-97.90;20.42;68339.91;6359203;22;28772;-82
2023/06/04 13:27:38;;;;;;;;;0.00;0.00;;;;;-97.90;20.42;68339.91;6386495;22;28817;-82
2023/06/04 13:30:05;;;;;;;;;0.00;0.00;;;;;-97.90;20.42;68339.91;6357987;22;28459;-82
2023/06/04 13:32:31;;;;;;;;;0.50;0.50;;;;;-97.90;20.42;51178.09;6386652;22;28818;-82
2023/06/04 13:34:56;;;;;;;;;0.00;0.00;;;;;-21.91;23.04;51178.09;6359481;22;28511;-81
2023/06/04 13:37:21;;;;;;;;;0.00;0.00;;;;;-145.03;20.42;51178.34;6386530;22;29202;-81
2023/06/04 13:39:47;;;;;;;;;0.00;0.00;;;;;-97.90;21.05;83225.97;6386716;22;28604;-81
2023/06/04 13:42:12;;;;;;;;;0.00;0.00;;;;;-145.03;22.93;51178.34;6386888;22;28482;-81
2023/06/04 13:44:37;;;;;;;;;0.00;0.00;;;;;-21.91;20.42;80097.25;6381814;22;28515;-81
2023/06/04 13:47:03;;;;;;;;;0.00;0.00;;;;;-97.90;20.42;68339.91;6385540;22;28366;-86
2023/06/04 13:49:31;;;;;;;;;0.00;0.00;;;;;-97.90;20.42;68339.91;6386238;22;28431;-87
2023/06/04 13:51:56;;;;;;;;;0.00;0.00;;;;;51.51;20.03;72248.97;6358287;22;28459;-83
2023/06/04 13:54:21;;;;;;;;;0.00;0.00;;;;;48.89;20.18;71956.53;6384115;22;28517;-83
2023/06/04 13:56:48;;;;;;;;;1.00;0.00;;;;;22.66;21.33;69869.56;6385580;22;29133;-87
2023/06/04 13:59:13;;;;;;;;;0.00;0.00;;;;;22.66;23.42;68652.25;6384961;22;28551;-82
2023/06/04 14:01:40;;;;;;;;;0.00;0.00;;;;;31.18;21.73;68879.69;6356928;22;28507;-83
2023/06/04 14:04:06;;;;;;;;;0.00;0.00;;;;;-40.26;9.46;51453.41;6357533;22;28421;-82
2023/06/04 14:06:31;;;;;;;;;0.00;0.00;;;;;-40.26;9.46;51453.41;6357477;22;30180;-82
2023/06/04 14:08:56;;;;;;;;;1.00;0.00;;;;;-40.26;9.46;51453.41;6385428;22;28427;-81
2023/06/04 14:11:22;;;;;;;;;0.00;0.00;;;;;-48.13;8.39;51416.75;6385825;22;28389;-83
2023/06/04 14:13:47;;;;;;;;;0.00;0.00;;;;;-63.85;8.94;51453.41;6385663;22;28374;-83
2023/06/04 14:16:12;;;;;;;;;0.00;0.00;;;;;-69.09;9.62;51453.41;6385469;22;29908;-82
2023/06/04 14:18:38;;;;;;;;;0.00;0.00;;;;;-69.09;9.62;51453.41;6385719;22;28399;-81
2023/06/04 14:21:03;;;;;;;;;0.00;0.00;;;;;-69.09;9.62;51453.41;6385906;22;27835;-81
2023/06/04 14:23:29;;;;;;;;;0.00;0.00;;;;;-118.85;9.13;51453.41;6357241;22;28703;-81
2023/06/04 14:25:54;;;;;;;;;0.00;0.00;;;;;-118.85;21.68;51461.34;6385363;22;28393;-81
2023/06/04 14:28:20;;;;;;;;;0.00;0.00;;;;;-118.85;24.15;51453.41;6384650;22;28427;-81
2023/06/04 14:30:46;;;;;;;;;0.00;0.00;;;;;-117.54;21.56;69868.34;6385169;22;28373;-81
2023/06/04 14:33:11;;;;;;;;;0.00;0.00;;;;;-145.03;21.69;52533.97;6357367;22;28550;-81
2023/06/04 14:35:38;;;;;;;;;0.00;0.00;;;;;135.50;22.27;96560.09;6331065;22;30859;-80
2023/06/04 14:38:04;;;;;;;;;0.00;0.00;;;;;30.31;12.65;69803.78;6385945;22;28500;-81
2023/06/04 14:40:29;;;;;;;;;0.00;0.00;;;;;-97.90;14.18;68586.97;6385853;22;28822;-81
2023/06/04 14:42:55;;;;;;;;;1.00;0.00;;;;;151.25;14.18;84089.97;6386903;22;28571;-81
2023/06/04 14:45:20;;;;;;;;;0.00;0.00;;;;;30.38;21.79;69882.16;6378610;22;45356;-81
2023/06/04 14:47:45;;;;;;;;;0.00;0.00;;;;;30.38;21.78;69833.63;6366235;22;45326;-83
2023/06/04 14:50:11;;;;;;;;;0.00;0.00;;;;;30.13;22.08;69836.50;6367529;22;45767;-82
2023/06/04 14:52:36;;;;;;;;;0.00;0.00;;;;;30.29;22.00;69809.81;6369204;22;45465;-82
2023/06/04 14:55:01;;;;;;;;;0.00;0.00;;;;;30.25;22.38;69845.38;6366795;22;46364;-82
2023/06/04 14:57:27;;;;;;;;;0.00;0.00;;;;;30.21;22.13;69843.34;6365440;22;45309;-83
2023/06/04 14:59:52;;;;;;;;;0.00;0.00;;;;;30.14;22.38;69870.44;6367580;22;45576;-83
2023/06/04 15:02:20;;;;;;;;;0.00;0.00;;;;;30.14;22.10;69871.03;6368760;22;45378;-82
2023/06/04 15:04:46;;;;;;;;;0.67;0.00;;;;;30.01;22.13;69812.47;6367626;22;46980;-82
2023/06/04 15:07:12;;;;;;;;;0.00;0.00;;;;;29.98;22.52;69811.00;6367783;22;45393;-83
2023/06/04 15:09:37;;;;;;;;;1.00;0.00;;;;;29.79;22.38;69786.22;6368252;22;45363;-82
2023/06/04 15:12:03;;;;;;;;;0.00;0.00;;;;;30.00;22.66;69879.47;6367986;22;45383;-82
2023/06/04 15:14:28;;;;;;;;;0.00;0.00;;;;;29.88;22.80;69862.41;6339314;22;45428;-83
2023/06/04 15:16:53;;;;;;;;;0.67;0.67;;;;;29.96;22.23;69835.91;6368303;22;45347;-82
2023/06/04 15:19:19;;;;;;;;;0.00;0.00;;;;;29.92;22.45;69820.81;6368256;22;45661;-83
2023/06/04 15:21:44;;;;;;;;;0.00;0.00;;;;;29.91;22.61;69859.94;6368392;22;45461;-82
2023/06/04 15:24:10;;;;;;;;;0.00;0.00;;;;;29.87;22.64;69820.28;6368000;22;46017;-82
2023/06/04 15:26:35;;;;;;;;;3.67;2.00;;;;;29.77;22.54;69860.75;6367177;22;45710;-82
2023/06/04 15:29:01;;;;;;;;;28.00;23.67;;;;;-97.90;17.92;68586.97;6351846;22;45389;-81
2023/06/04 15:31:26;;;;;;;;;7.00;7.00;;;;;29.73;22.92;69872.34;6346571;22;45810;-82
2023/06/04 15:33:52;;;;;;;;;2.00;2.00;;;;;29.74;23.06;69859.31;6366990;22;45980;-82
2023/06/04 15:36:17;;;;;;;;;2.00;0.00;;;;;29.67;23.15;69863.03;6335703;22;45295;-84
2023/06/04 15:38:42;;;;;;;;;9.67;9.67;;;;;29.59;23.10;69836.50;6367402;22;45753;-85
2023/06/04 15:41:08;;;;;;;;;1.00;1.00;;;;;29.65;23.29;69836.09;6338806;22;45389;-84
2023/06/04 15:43:33;;;;;;;;;168.25;156.75;;;;;29.63;23.56;69830.38;6366404;22;45342;-83
2023/06/04 15:45:58;;;;;;;;;22.33;21.33;;;;;-97.90;23.76;68715.66;6370661;22;45423;-81